sensor_id;sensor_type;location;lat;lon;timestamp;temperature;humidity
7129;DHT22;3606;52.930;8.644;2023-08-21T00:00:44;14.80;99.90
7129;DHT22;3606;52.930;8.644;2023-08-21T00:03:09;14.80;99.90
7129;DHT22;3606;52.930;8.644;2023-08-21T00:05:35;14.70;99.90
7129;DHT22;3606;52.930;8.644;2023-08-21T00:08:00;14.70;99.90
7129;DHT22;3606;52.930;8.644;2023-08-21T00:10:26;14.80;99.90
7129;DHT22;3606;52.930;8.644;2023-08-21T00:12:52;14.70;99.90
7129;DHT22;3606;52.930;8.644;2023-08-21T00:15:17;14.70;99.90
7129;DHT22;3606;52.930;8.644;2023-08-21T00:17:43;14.70;99.90
7129;DHT22;3606;52.930;8.644;2023-08-21T00:20:09;14.70;99.90
7129;DHT22;3606;52.930;8.644;2023-08-21T00:22:36;14.60;99.90
7129;DHT22;3606;52.930;8.644;2023-08-21T00:25:01;14.60;99.90
7129;DHT22;3606;52.930;8.644;2023-08-21T00:27:27;14.60;99.90
7129;DHT22;3606;52.930;8.644;2023-08-21T00:29:52;14.70;99.90
7129;DHT22;3606;52.930;8.644;2023-08-21T00:32:18;14.70;99.90
7129;DHT22;3606;52.930;8.644;2023-08-21T00:34:44;14.70;99.90
7129;DHT22;3606;52.930;8.644;2023-08-21T00:37:10;14.60;99.90
7129;DHT22;3606;52.930;8.644;2023-08-21T00:39:36;14.60;99.90
7129;DHT22;3606;52.930;8.644;2023-08-21T00:42:02;14.60;99.90
7129;DHT22;3606;52.930;8.644;2023-08-21T00:44:27;14.60;99.90
7129;DHT22;3606;52.930;8.644;2023-08-21T00:46:53;14.50;99.90
7129;DHT22;3606;52.930;8.644;2023-08-21T00:49:19;14.50;99.90
7129;DHT22;3606;52.930;8.644;2023-08-21T00:51:45;14.50;99.90
7129;DHT22;3606;52.930;8.644;2023-08-21T00:54:11;14.50;99.90
7129;DHT22;3606;52.930;8.644;2023-08-21T00:56:36;14.40;99.90
7129;DHT22;3606;52.930;8.644;2023-08-21T00:59:02;14.40;99.90
7129;DHT22;3606;52.930;8.644;2023-08-21T01:01:28;14.30;99.90
7129;DHT22;3606;52.930;8.644;2023-08-21T01:03:54;14.30;99.90
7129;DHT22;3606;52.930;8.644;2023-08-21T01:06:20;14.30;99.90
7129;DHT22;3606;52.930;8.644;2023-08-21T01:09:04;14.20;99.90
7129;DHT22;3606;52.930;8.644;2023-08-21T01:12:16;14.20;99.90
7129;DHT22;3606;52.930;8.644;2023-08-21T01:17:17;14.20;99.90
7129;DHT22;3606;52.930;8.644;2023-08-21T01:19:48;14.20;99.90
7129;DHT22;3606;52.930;8.644;2023-08-21T01:22:14;14.20;99.90
7129;DHT22;3606;52.930;8.644;2023-08-21T01:24:40;14.20;99.90
7129;DHT22;3606;52.930;8.644;2023-08-21T01:27:06;14.20;99.90
7129;DHT22;3606;52.930;8.644;2023-08-21T01:29:32;14.20;99.90
7129;DHT22;3606;52.930;8.644;2023-08-21T01:32:07;14.20;99.90
7129;DHT22;3606;52.930;8.644;2023-08-21T01:34:34;14.20;99.90
7129;DHT22;3606;52.930;8.644;2023-08-21T01:37:01;14.30;99.90
7129;DHT22;3606;52.930;8.644;2023-08-21T01:39:27;14.40;99.90
7129;DHT22;3606;52.930;8.644;2023-08-21T01:41:53;14.40;99.90
7129;DHT22;3606;52.930;8.644;2023-08-21T01:44:19;14.40;99.90
7129;DHT22;3606;52.930;8.644;2023-08-21T01:46:44;14.40;99.90
7129;DHT22;3606;52.930;8.644;2023-08-21T01:49:10;14.50;99.90
7129;DHT22;3606;52.930;8.644;2023-08-21T01:51:35;14.40;99.90
7129;DHT22;3606;52.930;8.644;2023-08-21T01:54:01;14.30;99.90
7129;DHT22;3606;52.930;8.644;2023-08-21T01:56:26;14.20;99.90
7129;DHT22;3606;52.930;8.644;2023-08-21T01:58:52;14.10;99.90
7129;DHT22;3606;52.930;8.644;2023-08-21T02:01:17;14.10;99.90
7129;DHT22;3606;52.930;8.644;2023-08-21T02:03:45;14.10;99.90
7129;DHT22;3606;52.930;8.644;2023-08-21T02:06:11;14.00;99.90
7129;DHT22;3606;52.930;8.644;2023-08-21T02:08:37;14.00;99.90
7129;DHT22;3606;52.930;8.644;2023-08-21T02:11:02;14.00;99.90
7129;DHT22;3606;52.930;8.644;2023-08-21T02:13:28;13.90;99.90
7129;DHT22;3606;52.930;8.644;2023-08-21T02:15:54;13.90;99.90
7129;DHT22;3606;52.930;8.644;2023-08-21T02:18:19;13.90;99.90
7129;DHT22;3606;52.930;8.644;2023-08-21T02:20:47;13.80;99.90
7129;DHT22;3606;52.930;8.644;2023-08-21T02:23:12;13.80;99.90
7129;DHT22;3606;52.930;8.644;2023-08-21T02:25:38;13.80;99.90
7129;DHT22;3606;52.930;8.644;2023-08-21T02:28:03;13.80;99.90
7129;DHT22;3606;52.930;8.644;2023-08-21T02:30:29;13.70;99.90
7129;DHT22;3606;52.930;8.644;2023-08-21T02:32:55;13.70;99.90
7129;DHT22;3606;52.930;8.644;2023-08-21T02:35:21;13.70;99.90
7129;DHT22;3606;52.930;8.644;2023-08-21T02:37:46;13.70;99.90
7129;DHT22;3606;52.930;8.644;2023-08-21T02:40:12;13.70;99.90
7129;DHT22;3606;52.930;8.644;2023-08-21T02:42:38;13.60;99.90
7129;DHT22;3606;52.930;8.644;2023-08-21T02:45:03;13.60;99.90
7129;DHT22;3606;52.930;8.644;2023-08-21T02:47:36;13.60;99.90
7129;DHT22;3606;52.930;8.644;2023-08-21T02:50:06;13.60;99.90
7129;DHT22;3606;52.930;8.644;2023-08-21T02:52:32;13.60;99.90
7129;DHT22;3606;52.930;8.644;2023-08-21T02:54:58;13.60;99.90
7129;DHT22;3606;52.930;8.644;2023-08-21T02:57:26;13.60;99.90
7129;DHT22;3606;52.930;8.644;2023-08-21T02:59:52;13.60;99.90
7129;DHT22;3606;52.930;8.644;2023-08-21T03:02:18;13.50;99.90
7129;DHT22;3606;52.930;8.644;2023-08-21T03:04:44;13.50;99.90
7129;DHT22;3606;52.930;8.644;2023-08-21T03:07:09;13.50;99.90
7129;DHT22;3606;52.930;8.644;2023-08-21T03:09:36;13.60;99.90
7129;DHT22;3606;52.930;8.644;2023-08-21T03:12:02;13.60;99.90
7129;DHT22;3606;52.930;8.644;2023-08-21T03:14:28;13.50;99.90
7129;DHT22;3606;52.930;8.644;2023-08-21T03:16:53;13.50;99.90
7129;DHT22;3606;52.930;8.644;2023-08-21T03:19:19;13.50;99.90
7129;DHT22;3606;52.930;8.644;2023-08-21T03:21:45;13.50;99.90
7129;DHT22;3606;52.930;8.644;2023-08-21T03:24:10;13.50;99.90
7129;DHT22;3606;52.930;8.644;2023-08-21T03:26:36;13.50;99.90
7129;DHT22;3606;52.930;8.644;2023-08-21T03:29:01;13.50;99.90
7129;DHT22;3606;52.930;8.644;2023-08-21T03:31:27;13.50;99.90
7129;DHT22;3606;52.930;8.644;2023-08-21T03:33:53;13.50;99.90
7129;DHT22;3606;52.930;8.644;2023-08-21T03:36:20;13.60;99.90
7129;DHT22;3606;52.930;8.644;2023-08-21T03:38:45;13.60;99.90
7129;DHT22;3606;52.930;8.644;2023-08-21T03:41:11;13.70;99.90
7129;DHT22;3606;52.930;8.644;2023-08-21T03:43:37;13.60;99.90
7129;DHT22;3606;52.930;8.644;2023-08-21T03:46:03;13.70;99.90
7129;DHT22;3606;52.930;8.644;2023-08-21T03:48:29;13.70;99.90
7129;DHT22;3606;52.930;8.644;2023-08-21T03:50:54;13.60;99.90
7129;DHT22;3606;52.930;8.644;2023-08-21T03:53:20;13.70;99.90
7129;DHT22;3606;52.930;8.644;2023-08-21T03:55:45;13.80;99.90
7129;DHT22;3606;52.930;8.644;2023-08-21T03:58:13;14.00;99.90
7129;DHT22;3606;52.930;8.644;2023-08-21T04:00:39;14.00;99.90
7129;DHT22;3606;52.930;8.644;2023-08-21T04:03:04;14.20;99.90
7129;DHT22;3606;52.930;8.644;2023-08-21T04:05:30;14.20;99.90
7129;DHT22;3606;52.930;8.644;2023-08-21T04:07:55;14.20;99.90
7129;DHT22;3606;52.930;8.644;2023-08-21T04:10:21;14.20;99.90
7129;DHT22;3606;52.930;8.644;2023-08-21T04:12:46;14.10;99.90
7129;DHT22;3606;52.930;8.644;2023-08-21T04:15:12;14.00;99.90
7129;DHT22;3606;52.930;8.644;2023-08-21T04:17:37;14.00;99.90
7129;DHT22;3606;52.930;8.644;2023-08-21T04:20:03;14.10;99.90
7129;DHT22;3606;52.930;8.644;2023-08-21T04:22:29;14.00;99.90
7129;DHT22;3606;52.930;8.644;2023-08-21T04:24:55;13.90;99.90
7129;DHT22;3606;52.930;8.644;2023-08-21T04:27:20;13.80;99.90
7129;DHT22;3606;52.930;8.644;2023-08-21T04:29:46;13.80;99.90
7129;DHT22;3606;52.930;8.644;2023-08-21T04:32:11;13.80;99.90
7129;DHT22;3606;52.930;8.644;2023-08-21T04:34:37;13.70;99.90
7129;DHT22;3606;52.930;8.644;2023-08-21T04:37:03;13.70;99.90
7129;DHT22;3606;52.930;8.644;2023-08-21T04:39:30;13.70;99.90
7129;DHT22;3606;52.930;8.644;2023-08-21T04:41:56;13.80;99.90
7129;DHT22;3606;52.930;8.644;2023-08-21T04:44:21;13.80;99.90
7129;DHT22;3606;52.930;8.644;2023-08-21T04:46:48;13.80;99.90
7129;DHT22;3606;52.930;8.644;2023-08-21T04:49:15;13.80;99.90
7129;DHT22;3606;52.930;8.644;2023-08-21T04:51:41;13.80;99.90
7129;DHT22;3606;52.930;8.644;2023-08-21T04:54:07;13.80;99.90
7129;DHT22;3606;52.930;8.644;2023-08-21T04:56:32;13.90;99.90
7129;DHT22;3606;52.930;8.644;2023-08-21T04:58:58;13.80;99.90
7129;DHT22;3606;52.930;8.644;2023-08-21T05:01:26;13.90;99.90
7129;DHT22;3606;52.930;8.644;2023-08-21T05:04:01;13.90;99.90
7129;DHT22;3606;52.930;8.644;2023-08-21T05:06:27;14.00;99.90
7129;DHT22;3606;52.930;8.644;2023-08-21T05:08:57;14.00;99.90
7129;DHT22;3606;52.930;8.644;2023-08-21T05:11:23;14.10;99.90
7129;DHT22;3606;52.930;8.644;2023-08-21T05:13:50;14.20;99.90
7129;DHT22;3606;52.930;8.644;2023-08-21T05:16:16;14.20;99.90
7129;DHT22;3606;52.930;8.644;2023-08-21T05:18:41;14.20;99.90
7129;DHT22;3606;52.930;8.644;2023-08-21T05:21:07;14.30;99.90
7129;DHT22;3606;52.930;8.644;2023-08-21T05:23:33;14.30;99.90
7129;DHT22;3606;52.930;8.644;2023-08-21T05:25:58;14.50;99.90
7129;DHT22;3606;52.930;8.644;2023-08-21T05:28:24;14.60;99.90
7129;DHT22;3606;52.930;8.644;2023-08-21T05:30:49;14.70;99.90
7129;DHT22;3606;52.930;8.644;2023-08-21T05:33:15;14.80;99.90
7129;DHT22;3606;52.930;8.644;2023-08-21T05:35:41;15.00;99.90
7129;DHT22;3606;52.930;8.644;2023-08-21T05:38:06;15.30;99.90
7129;DHT22;3606;52.930;8.644;2023-08-21T05:40:32;15.50;99.90
7129;DHT22;3606;52.930;8.644;2023-08-21T05:42:58;15.60;99.90
7129;DHT22;3606;52.930;8.644;2023-08-21T05:45:23;15.70;99.90
7129;DHT22;3606;52.930;8.644;2023-08-21T05:47:49;15.70;99.90
7129;DHT22;3606;52.930;8.644;2023-08-21T05:50:14;15.70;99.90
7129;DHT22;3606;52.930;8.644;2023-08-21T05:52:40;15.90;99.90
7129;DHT22;3606;52.930;8.644;2023-08-21T05:55:06;16.00;99.90
7129;DHT22;3606;52.930;8.644;2023-08-21T05:57:31;16.00;99.90
7129;DHT22;3606;52.930;8.644;2023-08-21T05:59:57;16.10;99.90
7129;DHT22;3606;52.930;8.644;2023-08-21T06:02:22;16.20;99.90
7129;DHT22;3606;52.930;8.644;2023-08-21T06:04:49;16.50;99.90
7129;DHT22;3606;52.930;8.644;2023-08-21T06:07:14;16.70;99.90
7129;DHT22;3606;52.930;8.644;2023-08-21T06:09:40;17.00;99.90
7129;DHT22;3606;52.930;8.644;2023-08-21T06:12:05;16.90;99.90
7129;DHT22;3606;52.930;8.644;2023-08-21T06:14:31;16.90;99.90
7129;DHT22;3606;52.930;8.644;2023-08-21T06:16:59;16.90;99.90
7129;DHT22;3606;52.930;8.644;2023-08-21T06:19:24;17.20;99.90
7129;DHT22;3606;52.930;8.644;2023-08-21T06:21:50;17.60;99.90
7129;DHT22;3606;52.930;8.644;2023-08-21T06:24:16;18.00;99.90
7129;DHT22;3606;52.930;8.644;2023-08-21T06:26:42;18.30;99.90
7129;DHT22;3606;52.930;8.644;2023-08-21T06:29:07;18.70;99.90
7129;DHT22;3606;52.930;8.644;2023-08-21T06:31:33;19.10;99.90
7129;DHT22;3606;52.930;8.644;2023-08-21T06:33:58;19.40;99.90
7129;DHT22;3606;52.930;8.644;2023-08-21T06:36:24;19.80;99.90
7129;DHT22;3606;52.930;8.644;2023-08-21T06:38:50;20.30;99.90
7129;DHT22;3606;52.930;8.644;2023-08-21T06:41:15;20.70;99.90
7129;DHT22;3606;52.930;8.644;2023-08-21T06:43:41;21.00;99.90
7129;DHT22;3606;52.930;8.644;2023-08-21T06:46:07;21.40;99.90
7129;DHT22;3606;52.930;8.644;2023-08-21T06:48:33;21.80;99.90
7129;DHT22;3606;52.930;8.644;2023-08-21T06:50:59;22.20;99.90
7129;DHT22;3606;52.930;8.644;2023-08-21T06:53:24;22.60;99.90
7129;DHT22;3606;52.930;8.644;2023-08-21T06:55:50;22.90;94.50
7129;DHT22;3606;52.930;8.644;2023-08-21T06:58:16;23.20;99.90
7129;DHT22;3606;52.930;8.644;2023-08-21T07:00:41;23.60;94.30
7129;DHT22;3606;52.930;8.644;2023-08-21T07:03:07;24.00;1.00
7129;DHT22;3606;52.930;8.644;2023-08-21T07:05:33;24.50;1.00
7129;DHT22;3606;52.930;8.644;2023-08-21T07:07:59;24.80;99.90
7129;DHT22;3606;52.930;8.644;2023-08-21T07:10:25;25.00;99.90
7129;DHT22;3606;52.930;8.644;2023-08-21T07:12:50;25.00;35.40
7129;DHT22;3606;52.930;8.644;2023-08-21T07:15:16;25.00;99.90
7129;DHT22;3606;52.930;8.644;2023-08-21T07:17:42;25.20;99.90
7129;DHT22;3606;52.930;8.644;2023-08-21T07:20:07;25.10;99.90
7129;DHT22;3606;52.930;8.644;2023-08-21T07:22:33;25.60;99.90
7129;DHT22;3606;52.930;8.644;2023-08-21T07:24:59;25.80;99.90
7129;DHT22;3606;52.930;8.644;2023-08-21T07:27:29;26.10;99.90
7129;DHT22;3606;52.930;8.644;2023-08-21T07:29:55;25.90;99.90
7129;DHT22;3606;52.930;8.644;2023-08-21T07:32:20;26.10;99.90
7129;DHT22;3606;52.930;8.644;2023-08-21T07:34:46;25.70;99.90
7129;DHT22;3606;52.930;8.644;2023-08-21T07:37:11;25.20;99.90
7129;DHT22;3606;52.930;8.644;2023-08-21T07:39:37;24.50;99.90
7129;DHT22;3606;52.930;8.644;2023-08-21T07:42:03;24.00;99.90
7129;DHT22;3606;52.930;8.644;2023-08-21T07:44:28;23.90;99.90
7129;DHT22;3606;52.930;8.644;2023-08-21T07:46:54;23.70;99.90
7129;DHT22;3606;52.930;8.644;2023-08-21T07:49:19;23.50;99.90
7129;DHT22;3606;52.930;8.644;2023-08-21T07:51:45;23.50;99.90
7129;DHT22;3606;52.930;8.644;2023-08-21T07:54:11;23.60;99.90
7129;DHT22;3606;52.930;8.644;2023-08-21T07:56:37;23.70;99.90
7129;DHT22;3606;52.930;8.644;2023-08-21T07:59:05;23.60;99.90
7129;DHT22;3606;52.930;8.644;2023-08-21T08:01:30;23.50;99.90
7129;DHT22;3606;52.930;8.644;2023-08-21T08:03:56;23.30;99.90
7129;DHT22;3606;52.930;8.644;2023-08-21T08:06:21;23.40;99.90
7129;DHT22;3606;52.930;8.644;2023-08-21T08:08:48;23.80;99.90
7129;DHT22;3606;52.930;8.644;2023-08-21T08:11:14;24.30;99.90
7129;DHT22;3606;52.930;8.644;2023-08-21T08:13:39;25.20;99.90
7129;DHT22;3606;52.930;8.644;2023-08-21T08:16:05;26.30;99.90
7129;DHT22;3606;52.930;8.644;2023-08-21T08:18:30;27.50;99.90
7129;DHT22;3606;52.930;8.644;2023-08-21T08:20:56;28.90;99.90
7129;DHT22;3606;52.930;8.644;2023-08-21T08:23:21;29.70;99.90
7129;DHT22;3606;52.930;8.644;2023-08-21T08:25:48;30.10;99.90
7129;DHT22;3606;52.930;8.644;2023-08-21T08:28:14;30.40;99.90
7129;DHT22;3606;52.930;8.644;2023-08-21T08:30:39;31.00;99.90
7129;DHT22;3606;52.930;8.644;2023-08-21T08:33:05;30.70;99.90
7129;DHT22;3606;52.930;8.644;2023-08-21T08:35:31;30.80;99.90
7129;DHT22;3606;52.930;8.644;2023-08-21T08:37:57;31.30;99.90
7129;DHT22;3606;52.930;8.644;2023-08-21T08:40:22;31.20;99.90
7129;DHT22;3606;52.930;8.644;2023-08-21T08:42:48;31.40;99.90
7129;DHT22;3606;52.930;8.644;2023-08-21T08:45:14;32.10;99.90
7129;DHT22;3606;52.930;8.644;2023-08-21T08:47:40;32.80;99.90
7129;DHT22;3606;52.930;8.644;2023-08-21T08:50:07;32.80;99.90
7129;DHT22;3606;52.930;8.644;2023-08-21T08:52:38;32.60;99.90
7129;DHT22;3606;52.930;8.644;2023-08-21T08:55:04;33.10;99.90
7129;DHT22;3606;52.930;8.644;2023-08-21T08:57:32;33.70;99.90
7129;DHT22;3606;52.930;8.644;2023-08-21T08:59:58;34.10;99.90
7129;DHT22;3606;52.930;8.644;2023-08-21T09:02:25;34.40;99.90
7129;DHT22;3606;52.930;8.644;2023-08-21T09:04:54;33.10;99.90
7129;DHT22;3606;52.930;8.644;2023-08-21T09:07:20;31.50;99.90
7129;DHT22;3606;52.930;8.644;2023-08-21T09:09:47;30.40;99.90
7129;DHT22;3606;52.930;8.644;2023-08-21T09:12:16;29.60;99.90
7129;DHT22;3606;52.930;8.644;2023-08-21T09:14:42;30.00;99.90
7129;DHT22;3606;52.930;8.644;2023-08-21T09:17:09;30.30;99.90
7129;DHT22;3606;52.930;8.644;2023-08-21T09:19:34;30.70;99.90
7129;DHT22;3606;52.930;8.644;2023-08-21T09:22:11;31.20;99.90
7129;DHT22;3606;52.930;8.644;2023-08-21T09:24:38;30.80;99.90
7129;DHT22;3606;52.930;8.644;2023-08-21T09:27:10;32.00;99.90
7129;DHT22;3606;52.930;8.644;2023-08-21T09:29:38;32.50;99.90
7129;DHT22;3606;52.930;8.644;2023-08-21T09:32:06;33.30;99.90
7129;DHT22;3606;52.930;8.644;2023-08-21T09:34:35;33.90;99.90
7129;DHT22;3606;52.930;8.644;2023-08-21T09:37:05;33.50;99.90
7129;DHT22;3606;52.930;8.644;2023-08-21T09:39:34;32.70;99.90
7129;DHT22;3606;52.930;8.644;2023-08-21T09:42:02;31.40;99.90
7129;DHT22;3606;52.930;8.644;2023-08-21T09:44:43;30.40;99.90
7129;DHT22;3606;52.930;8.644;2023-08-21T09:47:10;29.80;99.90
7129;DHT22;3606;52.930;8.644;2023-08-21T09:49:37;29.70;99.90
7129;DHT22;3606;52.930;8.644;2023-08-21T09:52:08;29.60;99.90
7129;DHT22;3606;52.930;8.644;2023-08-21T09:54:37;29.70;99.90
7129;DHT22;3606;52.930;8.644;2023-08-21T09:57:03;30.50;99.90
7129;DHT22;3606;52.930;8.644;2023-08-21T09:59:32;33.00;99.90
7129;DHT22;3606;52.930;8.644;2023-08-21T10:01:59;35.30;99.90
7129;DHT22;3606;52.930;8.644;2023-08-21T10:04:28;36.30;99.90
7129;DHT22;3606;52.930;8.644;2023-08-21T10:06:54;35.80;99.90
7129;DHT22;3606;52.930;8.644;2023-08-21T10:09:23;35.20;99.90
7129;DHT22;3606;52.930;8.644;2023-08-21T10:11:49;35.10;99.90
7129;DHT22;3606;52.930;8.644;2023-08-21T10:14:17;34.70;99.90
7129;DHT22;3606;52.930;8.644;2023-08-21T10:16:43;34.70;99.90
7129;DHT22;3606;52.930;8.644;2023-08-21T10:19:14;34.20;99.90
7129;DHT22;3606;52.930;8.644;2023-08-21T10:21:40;33.70;99.90
7129;DHT22;3606;52.930;8.644;2023-08-21T10:24:05;33.30;99.90
7129;DHT22;3606;52.930;8.644;2023-08-21T10:26:31;33.60;99.90
7129;DHT22;3606;52.930;8.644;2023-08-21T10:29:03;34.70;99.90
7129;DHT22;3606;52.930;8.644;2023-08-21T10:31:39;35.50;99.90
7129;DHT22;3606;52.930;8.644;2023-08-21T10:34:07;35.80;99.90
7129;DHT22;3606;52.930;8.644;2023-08-21T10:39:20;35.10;99.90
7129;DHT22;3606;52.930;8.644;2023-08-21T10:42:10;35.00;99.90
7129;DHT22;3606;52.930;8.644;2023-08-21T10:50:05;33.70;99.90
7129;DHT22;3606;52.930;8.644;2023-08-21T10:52:41;33.20;99.90
7129;DHT22;3606;52.930;8.644;2023-08-21T10:55:08;32.60;99.90
7129;DHT22;3606;52.930;8.644;2023-08-21T10:57:35;33.00;99.90
7129;DHT22;3606;52.930;8.644;2023-08-21T11:00:11;34.30;99.90
7129;DHT22;3606;52.930;8.644;2023-08-21T11:02:39;35.40;99.90
7129;DHT22;3606;52.930;8.644;2023-08-21T11:05:05;35.80;99.90
7129;DHT22;3606;52.930;8.644;2023-08-21T11:07:45;35.70;99.90
7129;DHT22;3606;52.930;8.644;2023-08-21T11:10:13;36.80;99.90
7129;DHT22;3606;52.930;8.644;2023-08-21T11:12:55;36.00;99.90
7129;DHT22;3606;52.930;8.644;2023-08-21T11:15:21;34.90;99.90
7129;DHT22;3606;52.930;8.644;2023-08-21T11:18:00;34.50;99.90
7129;DHT22;3606;52.930;8.644;2023-08-21T11:20:34;34.90;99.90
7129;DHT22;3606;52.930;8.644;2023-08-21T11:23:01;35.10;99.90
7129;DHT22;3606;52.930;8.644;2023-08-21T11:25:34;35.50;99.90
7129;DHT22;3606;52.930;8.644;2023-08-21T11:28:00;36.00;99.90
7129;DHT22;3606;52.930;8.644;2023-08-21T11:30:28;36.10;99.90
7129;DHT22;3606;52.930;8.644;2023-08-21T11:33:11;35.20;99.90
7129;DHT22;3606;52.930;8.644;2023-08-21T11:35:38;34.20;99.90
7129;DHT22;3606;52.930;8.644;2023-08-21T11:38:04;33.90;99.90
7129;DHT22;3606;52.930;8.644;2023-08-21T11:40:30;33.80;99.90
7129;DHT22;3606;52.930;8.644;2023-08-21T11:43:00;33.60;99.90
7129;DHT22;3606;52.930;8.644;2023-08-21T11:45:26;33.70;99.90
7129;DHT22;3606;52.930;8.644;2023-08-21T11:47:55;34.00;99.90
7129;DHT22;3606;52.930;8.644;2023-08-21T11:50:21;34.50;99.90
7129;DHT22;3606;52.930;8.644;2023-08-21T11:52:47;34.30;99.90
7129;DHT22;3606;52.930;8.644;2023-08-21T11:55:12;33.50;99.90
7129;DHT22;3606;52.930;8.644;2023-08-21T11:57:51;33.10;99.90
7129;DHT22;3606;52.930;8.644;2023-08-21T12:00:18;33.20;99.90
7129;DHT22;3606;52.930;8.644;2023-08-21T12:02:58;33.40;99.90
7129;DHT22;3606;52.930;8.644;2023-08-21T12:05:23;33.90;99.90
7129;DHT22;3606;52.930;8.644;2023-08-21T12:07:49;33.60;99.90
7129;DHT22;3606;52.930;8.644;2023-08-21T12:10:25;33.70;99.90
7129;DHT22;3606;52.930;8.644;2023-08-21T12:12:51;33.70;99.90
7129;DHT22;3606;52.930;8.644;2023-08-21T12:15:17;33.60;99.90
7129;DHT22;3606;52.930;8.644;2023-08-21T12:17:43;33.60;99.90
7129;DHT22;3606;52.930;8.644;2023-08-21T12:20:09;33.60;99.90
7129;DHT22;3606;52.930;8.644;2023-08-21T12:22:37;33.20;99.90
7129;DHT22;3606;52.930;8.644;2023-08-21T12:25:02;32.90;99.90
7129;DHT22;3606;52.930;8.644;2023-08-21T12:27:29;32.90;99.90
7129;DHT22;3606;52.930;8.644;2023-08-21T12:29:55;32.90;99.90
7129;DHT22;3606;52.930;8.644;2023-08-21T12:32:20;33.30;99.90
7129;DHT22;3606;52.930;8.644;2023-08-21T12:34:46;33.40;99.90
7129;DHT22;3606;52.930;8.644;2023-08-21T12:37:11;33.70;99.90
7129;DHT22;3606;52.930;8.644;2023-08-21T12:39:37;32.90;99.90
7129;DHT22;3606;52.930;8.644;2023-08-21T12:42:03;33.10;99.90
7129;DHT22;3606;52.930;8.644;2023-08-21T12:44:29;33.50;99.90
7129;DHT22;3606;52.930;8.644;2023-08-21T12:46:55;33.40;99.90
7129;DHT22;3606;52.930;8.644;2023-08-21T12:49:21;33.30;99.90
7129;DHT22;3606;52.930;8.644;2023-08-21T12:51:46;33.50;99.90
7129;DHT22;3606;52.930;8.644;2023-08-21T12:54:12;33.20;99.90
7129;DHT22;3606;52.930;8.644;2023-08-21T12:56:37;33.20;99.90
7129;DHT22;3606;52.930;8.644;2023-08-21T12:59:04;33.20;99.90
7129;DHT22;3606;52.930;8.644;2023-08-21T13:01:30;33.10;99.90
7129;DHT22;3606;52.930;8.644;2023-08-21T13:03:57;32.90;99.90
7129;DHT22;3606;52.930;8.644;2023-08-21T13:06:23;32.60;99.90
7129;DHT22;3606;52.930;8.644;2023-08-21T13:08:48;32.60;99.90
7129;DHT22;3606;52.930;8.644;2023-08-21T13:11:14;32.80;99.90
7129;DHT22;3606;52.930;8.644;2023-08-21T13:13:40;32.80;99.90
7129;DHT22;3606;52.930;8.644;2023-08-21T13:16:06;32.40;99.90
7129;DHT22;3606;52.930;8.644;2023-08-21T13:18:31;31.90;99.90
7129;DHT22;3606;52.930;8.644;2023-08-21T13:20:57;31.70;99.90
7129;DHT22;3606;52.930;8.644;2023-08-21T13:23:23;31.60;99.90
7129;DHT22;3606;52.930;8.644;2023-08-21T13:25:49;32.10;99.90
7129;DHT22;3606;52.930;8.644;2023-08-21T13:28:15;32.30;99.90
7129;DHT22;3606;52.930;8.644;2023-08-21T13:30:40;33.70;99.90
7129;DHT22;3606;52.930;8.644;2023-08-21T13:33:07;34.10;99.90
7129;DHT22;3606;52.930;8.644;2023-08-21T13:35:33;34.40;99.90
7129;DHT22;3606;52.930;8.644;2023-08-21T13:37:58;34.40;99.90
7129;DHT22;3606;52.930;8.644;2023-08-21T13:40:24;34.10;99.90
7129;DHT22;3606;52.930;8.644;2023-08-21T13:42:50;33.60;99.90
7129;DHT22;3606;52.930;8.644;2023-08-21T13:45:18;34.10;99.90
7129;DHT22;3606;52.930;8.644;2023-08-21T13:47:45;34.60;99.90
7129;DHT22;3606;52.930;8.644;2023-08-21T13:50:15;34.50;99.90
7129;DHT22;3606;52.930;8.644;2023-08-21T13:52:41;33.80;99.90
7129;DHT22;3606;52.930;8.644;2023-08-21T13:55:08;34.10;99.90
7129;DHT22;3606;52.930;8.644;2023-08-21T13:57:34;34.10;99.90
7129;DHT22;3606;52.930;8.644;2023-08-21T14:00:00;33.90;99.90
7129;DHT22;3606;52.930;8.644;2023-08-21T14:02:26;33.60;99.90
7129;DHT22;3606;52.930;8.644;2023-08-21T14:04:51;34.60;99.90
7129;DHT22;3606;52.930;8.644;2023-08-21T14:07:17;36.10;99.90
7129;DHT22;3606;52.930;8.644;2023-08-21T14:09:43;37.10;99.90
7129;DHT22;3606;52.930;8.644;2023-08-21T14:12:09;37.60;99.90
7129;DHT22;3606;52.930;8.644;2023-08-21T14:14:37;37.40;99.90
7129;DHT22;3606;52.930;8.644;2023-08-21T14:17:03;36.80;99.90
7129;DHT22;3606;52.930;8.644;2023-08-21T14:19:30;36.50;99.90
7129;DHT22;3606;52.930;8.644;2023-08-21T14:21:57;36.50;99.90
7129;DHT22;3606;52.930;8.644;2023-08-21T14:24:24;36.80;99.90
7129;DHT22;3606;52.930;8.644;2023-08-21T14:26:49;37.80;99.90
7129;DHT22;3606;52.930;8.644;2023-08-21T14:29:15;38.40;99.90
7129;DHT22;3606;52.930;8.644;2023-08-21T14:31:40;38.60;99.90
7129;DHT22;3606;52.930;8.644;2023-08-21T14:34:06;38.20;99.90
7129;DHT22;3606;52.930;8.644;2023-08-21T14:36:31;37.30;99.90
7129;DHT22;3606;52.930;8.644;2023-08-21T14:38:58;36.70;99.90
7129;DHT22;3606;52.930;8.644;2023-08-21T14:41:24;36.50;99.90
7129;DHT22;3606;52.930;8.644;2023-08-21T14:43:50;36.80;99.90
7129;DHT22;3606;52.930;8.644;2023-08-21T14:46:15;36.80;99.90
7129;DHT22;3606;52.930;8.644;2023-08-21T14:48:41;36.80;99.90
7129;DHT22;3606;52.930;8.644;2023-08-21T14:51:06;36.50;99.90
7129;DHT22;3606;52.930;8.644;2023-08-21T14:53:32;36.50;99.90
7129;DHT22;3606;52.930;8.644;2023-08-21T14:55:58;35.90;99.90
7129;DHT22;3606;52.930;8.644;2023-08-21T14:58:24;35.40;99.90
7129;DHT22;3606;52.930;8.644;2023-08-21T15:00:53;35.20;99.90
7129;DHT22;3606;52.930;8.644;2023-08-21T15:03:19;35.20;99.90
7129;DHT22;3606;52.930;8.644;2023-08-21T15:05:45;34.80;99.90
7129;DHT22;3606;52.930;8.644;2023-08-21T15:08:10;34.50;99.90
7129;DHT22;3606;52.930;8.644;2023-08-21T15:10:36;33.90;99.90
7129;DHT22;3606;52.930;8.644;2023-08-21T15:13:02;33.50;99.90
7129;DHT22;3606;52.930;8.644;2023-08-21T15:15:28;33.40;99.90
7129;DHT22;3606;52.930;8.644;2023-08-21T15:17:53;33.50;99.90
7129;DHT22;3606;52.930;8.644;2023-08-21T15:20:19;33.70;99.90
7129;DHT22;3606;52.930;8.644;2023-08-21T15:22:46;33.80;99.90
7129;DHT22;3606;52.930;8.644;2023-08-21T15:25:13;33.20;99.90
7129;DHT22;3606;52.930;8.644;2023-08-21T15:27:39;32.30;99.90
7129;DHT22;3606;52.930;8.644;2023-08-21T15:30:06;31.30;99.90
7129;DHT22;3606;52.930;8.644;2023-08-21T15:32:32;30.40;99.90
7129;DHT22;3606;52.930;8.644;2023-08-21T15:34:57;30.00;99.90
7129;DHT22;3606;52.930;8.644;2023-08-21T15:37:23;29.90;99.90
7129;DHT22;3606;52.930;8.644;2023-08-21T15:39:48;29.90;99.90
7129;DHT22;3606;52.930;8.644;2023-08-21T15:42:14;29.80;99.90
7129;DHT22;3606;52.930;8.644;2023-08-21T15:44:40;29.60;99.90
7129;DHT22;3606;52.930;8.644;2023-08-21T15:47:05;29.30;99.90
7129;DHT22;3606;52.930;8.644;2023-08-21T15:49:31;29.00;99.90
7129;DHT22;3606;52.930;8.644;2023-08-21T15:51:56;28.80;99.90
7129;DHT22;3606;52.930;8.644;2023-08-21T15:54:30;28.50;99.90
7129;DHT22;3606;52.930;8.644;2023-08-21T15:56:56;28.20;99.90
7129;DHT22;3606;52.930;8.644;2023-08-21T15:59:22;27.90;99.90
7129;DHT22;3606;52.930;8.644;2023-08-21T16:01:47;27.70;99.90
7129;DHT22;3606;52.930;8.644;2023-08-21T16:04:13;27.60;99.90
7129;DHT22;3606;52.930;8.644;2023-08-21T16:06:38;27.60;99.90
7129;DHT22;3606;52.930;8.644;2023-08-21T16:09:04;27.50;99.90